Mavisdale, Virginia
Current Conditions -  °F | °C
As of 2:35 PM on Wednesday 17 Dec 2014 (Local Time) from KJFZ Reporting Station
Clear Clear  
Wind Chill: 37°   Ceiling: Unl
Heat Index: 41°   Visibility: 10mi
Dew Point: 26°   Wind: 6mph
Humidity: 57%   Direction: 290°WNW
Pressure: 30.08"   Gusts: NA
Location:  37.2°N, 82.01°W
Report Text: KJFZ 171935Z AUTO 29005KT 10SM CLR 05/M03 A3008 RMK AO2 T00481032
Loading
Personal Weather Stations






























Interactive Weather Map New forecast layout! Learn more

10-Day Weather Forecast

Advertisements
Track Severe Weather on mobile